sensor_id;sensor_type;location;lat;lon;timestamp;P1;durP1;ratioP1;P2;durP2;ratioP2
8425;SDS011;4250;50.006;8.286;2022-08-19T00:02:20;19.00;;;15.40;;
8425;SDS011;4250;50.006;8.286;2022-08-19T00:04:45;19.30;;;16.20;;
8425;SDS011;4250;50.006;8.286;2022-08-19T00:07:12;18.97;;;15.00;;
8425;SDS011;4250;50.006;8.286;2022-08-19T00:09:38;18.13;;;15.47;;
8425;SDS011;4250;50.006;8.286;2022-08-19T00:12:03;17.33;;;14.73;;
8425;SDS011;4250;50.006;8.286;2022-08-19T00:14:29;18.27;;;15.43;;
8425;SDS011;4250;50.006;8.286;2022-08-19T00:16:57;19.97;;;15.13;;
8425;SDS011;4250;50.006;8.286;2022-08-19T00:19:23;17.83;;;15.80;;
8425;SDS011;4250;50.006;8.286;2022-08-19T00:21:49;20.03;;;15.40;;
8425;SDS011;4250;50.006;8.286;2022-08-19T00:24:15;18.07;;;15.03;;
8425;SDS011;4250;50.006;8.286;2022-08-19T00:26:41;18.33;;;16.33;;
8425;SDS011;4250;50.006;8.286;2022-08-19T00:29:10;20.17;;;16.67;;
8425;SDS011;4250;50.006;8.286;2022-08-19T00:31:37;20.23;;;15.53;;
8425;SDS011;4250;50.006;8.286;2022-08-19T00:34:02;21.47;;;16.30;;
8425;SDS011;4250;50.006;8.286;2022-08-19T00:36:28;19.57;;;16.30;;
8425;SDS011;4250;50.006;8.286;2022-08-19T00:38:54;20.07;;;16.00;;
8425;SDS011;4250;50.006;8.286;2022-08-19T00:41:20;21.63;;;16.57;;
8425;SDS011;4250;50.006;8.286;2022-08-19T00:44:03;19.20;;;16.30;;
8425;SDS011;4250;50.006;8.286;2022-08-19T00:46:31;16.57;;;14.83;;
8425;SDS011;4250;50.006;8.286;2022-08-19T00:48:58;19.83;;;16.60;;
8425;SDS011;4250;50.006;8.286;2022-08-19T00:51:25;18.93;;;15.47;;
8425;SDS011;4250;50.006;8.286;2022-08-19T00:53:53;19.20;;;16.37;;
8425;SDS011;4250;50.006;8.286;2022-08-19T00:56:19;19.53;;;16.20;;
8425;SDS011;4250;50.006;8.286;2022-08-19T00:58:45;23.63;;;17.67;;
8425;SDS011;4250;50.006;8.286;2022-08-19T01:01:10;19.90;;;17.73;;
8425;SDS011;4250;50.006;8.286;2022-08-19T01:03:35;20.43;;;17.43;;
8425;SDS011;4250;50.006;8.286;2022-08-19T01:06:01;18.83;;;16.73;;
8425;SDS011;4250;50.006;8.286;2022-08-19T01:08:27;19.70;;;17.17;;
8425;SDS011;4250;50.006;8.286;2022-08-19T01:10:53;23.63;;;17.47;;
8425;SDS011;4250;50.006;8.286;2022-08-19T01:13:22;20.70;;;16.90;;
8425;SDS011;4250;50.006;8.286;2022-08-19T01:15:52;23.37;;;18.43;;
8425;SDS011;4250;50.006;8.286;2022-08-19T01:18:29;24.67;;;17.07;;
8425;SDS011;4250;50.006;8.286;2022-08-19T01:20:56;22.90;;;17.10;;
8425;SDS011;4250;50.006;8.286;2022-08-19T01:23:23;20.93;;;17.00;;
8425;SDS011;4250;50.006;8.286;2022-08-19T01:26:07;21.13;;;16.17;;
8425;SDS011;4250;50.006;8.286;2022-08-19T01:28:35;19.27;;;15.70;;
8425;SDS011;4250;50.006;8.286;2022-08-19T01:31:00;20.67;;;16.90;;
8425;SDS011;4250;50.006;8.286;2022-08-19T01:33:26;19.73;;;16.10;;
8425;SDS011;4250;50.006;8.286;2022-08-19T01:35:51;21.27;;;16.27;;
8425;SDS011;4250;50.006;8.286;2022-08-19T01:38:24;18.13;;;15.67;;
8425;SDS011;4250;50.006;8.286;2022-08-19T01:40:51;20.43;;;15.53;;
8425;SDS011;4250;50.006;8.286;2022-08-19T01:43:17;17.63;;;15.37;;
8425;SDS011;4250;50.006;8.286;2022-08-19T01:45:44;19.90;;;15.83;;
8425;SDS011;4250;50.006;8.286;2022-08-19T01:48:10;20.47;;;15.63;;
8425;SDS011;4250;50.006;8.286;2022-08-19T01:50:38;18.57;;;15.83;;
8425;SDS011;4250;50.006;8.286;2022-08-19T01:53:05;20.70;;;15.53;;
8425;SDS011;4250;50.006;8.286;2022-08-19T01:55:32;19.83;;;16.27;;
8425;SDS011;4250;50.006;8.286;2022-08-19T01:58:02;20.13;;;15.30;;
8425;SDS011;4250;50.006;8.286;2022-08-19T02:00:28;19.47;;;16.60;;
8425;SDS011;4250;50.006;8.286;2022-08-19T02:02:55;19.43;;;15.77;;
8425;SDS011;4250;50.006;8.286;2022-08-19T02:05:20;18.90;;;16.17;;
8425;SDS011;4250;50.006;8.286;2022-08-19T02:07:46;22.90;;;18.03;;
8425;SDS011;4250;50.006;8.286;2022-08-19T02:10:13;19.33;;;16.93;;
8425;SDS011;4250;50.006;8.286;2022-08-19T02:12:42;20.50;;;17.00;;
8425;SDS011;4250;50.006;8.286;2022-08-19T02:15:08;19.90;;;16.63;;
8425;SDS011;4250;50.006;8.286;2022-08-19T02:17:33;20.93;;;17.43;;
8425;SDS011;4250;50.006;8.286;2022-08-19T02:19:59;21.17;;;18.17;;
8425;SDS011;4250;50.006;8.286;2022-08-19T02:22:25;21.47;;;17.77;;
8425;SDS011;4250;50.006;8.286;2022-08-19T02:24:51;21.53;;;18.10;;
8425;SDS011;4250;50.006;8.286;2022-08-19T02:27:17;19.77;;;16.97;;
8425;SDS011;4250;50.006;8.286;2022-08-19T02:29:42;20.90;;;16.47;;
8425;SDS011;4250;50.006;8.286;2022-08-19T02:32:08;20.37;;;17.53;;
8425;SDS011;4250;50.006;8.286;2022-08-19T02:34:33;20.47;;;17.70;;
8425;SDS011;4250;50.006;8.286;2022-08-19T02:37:00;20.37;;;16.87;;
8425;SDS011;4250;50.006;8.286;2022-08-19T02:39:25;20.53;;;17.40;;
8425;SDS011;4250;50.006;8.286;2022-08-19T02:41:51;21.20;;;17.50;;
8425;SDS011;4250;50.006;8.286;2022-08-19T02:44:17;19.67;;;17.17;;
8425;SDS011;4250;50.006;8.286;2022-08-19T02:46:42;20.17;;;16.40;;
8425;SDS011;4250;50.006;8.286;2022-08-19T02:49:09;19.00;;;16.43;;
8425;SDS011;4250;50.006;8.286;2022-08-19T02:51:36;19.43;;;16.90;;
8425;SDS011;4250;50.006;8.286;2022-08-19T02:54:04;20.60;;;17.07;;
8425;SDS011;4250;50.006;8.286;2022-08-19T02:56:30;19.30;;;16.63;;
8425;SDS011;4250;50.006;8.286;2022-08-19T02:58:56;18.80;;;16.57;;
8425;SDS011;4250;50.006;8.286;2022-08-19T03:01:24;19.27;;;16.13;;
8425;SDS011;4250;50.006;8.286;2022-08-19T03:03:51;21.80;;;16.40;;
8425;SDS011;4250;50.006;8.286;2022-08-19T03:06:16;19.30;;;16.27;;
8425;SDS011;4250;50.006;8.286;2022-08-19T03:08:43;18.97;;;16.07;;
8425;SDS011;4250;50.006;8.286;2022-08-19T03:11:20;20.80;;;16.63;;
8425;SDS011;4250;50.006;8.286;2022-08-19T03:13:47;20.20;;;16.33;;
8425;SDS011;4250;50.006;8.286;2022-08-19T03:16:17;19.33;;;15.63;;
8425;SDS011;4250;50.006;8.286;2022-08-19T03:18:42;18.50;;;15.93;;
8425;SDS011;4250;50.006;8.286;2022-08-19T03:21:08;20.37;;;16.10;;
8425;SDS011;4250;50.006;8.286;2022-08-19T03:23:34;20.43;;;15.97;;
8425;SDS011;4250;50.006;8.286;2022-08-19T03:26:02;18.33;;;15.97;;
8425;SDS011;4250;50.006;8.286;2022-08-19T03:28:29;18.10;;;16.20;;
8425;SDS011;4250;50.006;8.286;2022-08-19T03:31:00;17.87;;;15.97;;
8425;SDS011;4250;50.006;8.286;2022-08-19T03:33:30;17.70;;;15.83;;
8425;SDS011;4250;50.006;8.286;2022-08-19T03:36:00;19.87;;;16.23;;
8425;SDS011;4250;50.006;8.286;2022-08-19T03:38:54;18.37;;;16.00;;
8425;SDS011;4250;50.006;8.286;2022-08-19T03:41:22;19.77;;;15.70;;
8425;SDS011;4250;50.006;8.286;2022-08-19T03:43:56;17.30;;;15.30;;
8425;SDS011;4250;50.006;8.286;2022-08-19T03:46:22;17.00;;;15.00;;
8425;SDS011;4250;50.006;8.286;2022-08-19T03:48:50;18.43;;;15.43;;
8425;SDS011;4250;50.006;8.286;2022-08-19T03:53:56;19.27;;;16.13;;
8425;SDS011;4250;50.006;8.286;2022-08-19T03:56:23;17.73;;;15.83;;
8425;SDS011;4250;50.006;8.286;2022-08-19T03:58:50;19.43;;;16.40;;
8425;SDS011;4250;50.006;8.286;2022-08-19T04:01:17;18.23;;;16.33;;
8425;SDS011;4250;50.006;8.286;2022-08-19T04:03:44;19.77;;;15.33;;
8425;SDS011;4250;50.006;8.286;2022-08-19T04:06:21;17.93;;;15.27;;
8425;SDS011;4250;50.006;8.286;2022-08-19T04:08:49;19.90;;;16.17;;
8425;SDS011;4250;50.006;8.286;2022-08-19T04:11:16;22.10;;;16.50;;
8425;SDS011;4250;50.006;8.286;2022-08-19T04:13:45;18.63;;;15.77;;
8425;SDS011;4250;50.006;8.286;2022-08-19T04:16:10;18.20;;;15.63;;
8425;SDS011;4250;50.006;8.286;2022-08-19T04:18:37;19.00;;;16.57;;
8425;SDS011;4250;50.006;8.286;2022-08-19T04:21:03;18.90;;;16.87;;
8425;SDS011;4250;50.006;8.286;2022-08-19T04:23:29;18.63;;;16.43;;
8425;SDS011;4250;50.006;8.286;2022-08-19T04:25:55;19.83;;;16.40;;
8425;SDS011;4250;50.006;8.286;2022-08-19T04:28:21;18.70;;;15.80;;
8425;SDS011;4250;50.006;8.286;2022-08-19T04:30:48;19.03;;;16.33;;
8425;SDS011;4250;50.006;8.286;2022-08-19T04:33:16;19.73;;;16.53;;
8425;SDS011;4250;50.006;8.286;2022-08-19T04:35:45;24.17;;;16.70;;
8425;SDS011;4250;50.006;8.286;2022-08-19T04:38:12;20.73;;;17.63;;
8425;SDS011;4250;50.006;8.286;2022-08-19T04:40:42;22.47;;;17.40;;
8425;SDS011;4250;50.006;8.286;2022-08-19T04:43:27;19.27;;;16.60;;
8425;SDS011;4250;50.006;8.286;2022-08-19T04:45:53;21.53;;;16.40;;
8425;SDS011;4250;50.006;8.286;2022-08-19T04:48:19;20.17;;;16.40;;
8425;SDS011;4250;50.006;8.286;2022-08-19T04:50:55;18.77;;;15.33;;
8425;SDS011;4250;50.006;8.286;2022-08-19T04:53:28;19.53;;;16.23;;
8425;SDS011;4250;50.006;8.286;2022-08-19T04:55:58;17.80;;;15.57;;
8425;SDS011;4250;50.006;8.286;2022-08-19T04:58:25;24.07;;;16.83;;
8425;SDS011;4250;50.006;8.286;2022-08-19T05:00:51;20.63;;;15.97;;
8425;SDS011;4250;50.006;8.286;2022-08-19T05:03:17;19.27;;;15.73;;
8425;SDS011;4250;50.006;8.286;2022-08-19T05:05:46;19.30;;;16.23;;
8425;SDS011;4250;50.006;8.286;2022-08-19T05:08:13;19.03;;;16.50;;
8425;SDS011;4250;50.006;8.286;2022-08-19T05:10:44;17.47;;;15.57;;
8425;SDS011;4250;50.006;8.286;2022-08-19T05:13:12;19.50;;;15.97;;
8425;SDS011;4250;50.006;8.286;2022-08-19T05:15:37;17.30;;;15.40;;
8425;SDS011;4250;50.006;8.286;2022-08-19T05:18:03;17.63;;;15.07;;
8425;SDS011;4250;50.006;8.286;2022-08-19T05:21:07;18.83;;;15.73;;
8425;SDS011;4250;50.006;8.286;2022-08-19T05:23:52;16.97;;;15.10;;
8425;SDS011;4250;50.006;8.286;2022-08-19T05:26:17;18.27;;;15.17;;
8425;SDS011;4250;50.006;8.286;2022-08-19T05:28:43;21.80;;;15.53;;
8425;SDS011;4250;50.006;8.286;2022-08-19T05:31:08;19.43;;;15.60;;
8425;SDS011;4250;50.006;8.286;2022-08-19T05:33:34;21.33;;;14.87;;
8425;SDS011;4250;50.006;8.286;2022-08-19T05:36:00;16.40;;;14.63;;
8425;SDS011;4250;50.006;8.286;2022-08-19T05:38:27;19.80;;;15.03;;
8425;SDS011;4250;50.006;8.286;2022-08-19T05:40:53;19.70;;;15.20;;
8425;SDS011;4250;50.006;8.286;2022-08-19T05:43:19;16.03;;;14.33;;
8425;SDS011;4250;50.006;8.286;2022-08-19T05:45:44;18.50;;;15.17;;
8425;SDS011;4250;50.006;8.286;2022-08-19T05:48:10;20.17;;;14.27;;
8425;SDS011;4250;50.006;8.286;2022-08-19T05:50:37;16.70;;;13.87;;
8425;SDS011;4250;50.006;8.286;2022-08-19T05:53:03;25.87;;;15.23;;
8425;SDS011;4250;50.006;8.286;2022-08-19T05:55:29;20.43;;;14.90;;
8425;SDS011;4250;50.006;8.286;2022-08-19T05:57:54;21.40;;;14.43;;
8425;SDS011;4250;50.006;8.286;2022-08-19T06:00:19;16.33;;;14.00;;
8425;SDS011;4250;50.006;8.286;2022-08-19T06:02:45;18.37;;;13.77;;
8425;SDS011;4250;50.006;8.286;2022-08-19T06:05:10;18.33;;;13.93;;
8425;SDS011;4250;50.006;8.286;2022-08-19T06:07:36;15.13;;;13.10;;
8425;SDS011;4250;50.006;8.286;2022-08-19T06:10:03;15.67;;;13.37;;
8425;SDS011;4250;50.006;8.286;2022-08-19T06:12:32;15.83;;;14.13;;
8425;SDS011;4250;50.006;8.286;2022-08-19T06:15:00;16.63;;;12.53;;
8425;SDS011;4250;50.006;8.286;2022-08-19T06:17:26;16.43;;;13.17;;
8425;SDS011;4250;50.006;8.286;2022-08-19T06:19:51;20.60;;;13.13;;
8425;SDS011;4250;50.006;8.286;2022-08-19T06:22:17;15.30;;;11.70;;
8425;SDS011;4250;50.006;8.286;2022-08-19T06:24:42;16.03;;;12.70;;
8425;SDS011;4250;50.006;8.286;2022-08-19T06:27:08;15.07;;;12.17;;
8425;SDS011;4250;50.006;8.286;2022-08-19T06:29:34;15.23;;;12.07;;
8425;SDS011;4250;50.006;8.286;2022-08-19T06:32:01;14.23;;;12.37;;
8425;SDS011;4250;50.006;8.286;2022-08-19T06:34:28;12.83;;;11.30;;
8425;SDS011;4250;50.006;8.286;2022-08-19T06:36:55;12.73;;;11.43;;
8425;SDS011;4250;50.006;8.286;2022-08-19T06:39:25;14.67;;;11.03;;
8425;SDS011;4250;50.006;8.286;2022-08-19T06:41:53;19.83;;;12.23;;
8425;SDS011;4250;50.006;8.286;2022-08-19T06:44:21;13.53;;;11.03;;
8425;SDS011;4250;50.006;8.286;2022-08-19T06:46:47;16.67;;;10.87;;
8425;SDS011;4250;50.006;8.286;2022-08-19T06:49:14;12.57;;;10.40;;
8425;SDS011;4250;50.006;8.286;2022-08-19T06:51:43;14.30;;;11.50;;
8425;SDS011;4250;50.006;8.286;2022-08-19T06:54:12;13.20;;;11.47;;
8425;SDS011;4250;50.006;8.286;2022-08-19T06:56:38;12.97;;;11.07;;
8425;SDS011;4250;50.006;8.286;2022-08-19T06:59:06;13.93;;;10.40;;
8425;SDS011;4250;50.006;8.286;2022-08-19T07:01:36;14.10;;;11.07;;
8425;SDS011;4250;50.006;8.286;2022-08-19T07:04:04;13.30;;;10.80;;
8425;SDS011;4250;50.006;8.286;2022-08-19T07:06:30;12.17;;;10.40;;
8425;SDS011;4250;50.006;8.286;2022-08-19T07:08:56;11.97;;;10.00;;
8425;SDS011;4250;50.006;8.286;2022-08-19T07:11:23;13.23;;;10.43;;
8425;SDS011;4250;50.006;8.286;2022-08-19T07:13:48;13.73;;;10.43;;
8425;SDS011;4250;50.006;8.286;2022-08-19T07:16:15;12.73;;;9.87;;
8425;SDS011;4250;50.006;8.286;2022-08-19T07:18:42;13.60;;;10.20;;
8425;SDS011;4250;50.006;8.286;2022-08-19T07:21:10;12.50;;;9.63;;
8425;SDS011;4250;50.006;8.286;2022-08-19T07:23:41;14.03;;;9.93;;
8425;SDS011;4250;50.006;8.286;2022-08-19T07:26:07;13.03;;;10.17;;
8425;SDS011;4250;50.006;8.286;2022-08-19T07:28:34;16.03;;;10.13;;
8425;SDS011;4250;50.006;8.286;2022-08-19T07:30:59;13.93;;;11.47;;
8425;SDS011;4250;50.006;8.286;2022-08-19T07:33:26;14.60;;;11.43;;
8425;SDS011;4250;50.006;8.286;2022-08-19T07:35:52;14.93;;;10.27;;
8425;SDS011;4250;50.006;8.286;2022-08-19T07:38:17;15.73;;;10.03;;
8425;SDS011;4250;50.006;8.286;2022-08-19T07:40:43;16.50;;;10.07;;
8425;SDS011;4250;50.006;8.286;2022-08-19T07:43:11;14.97;;;10.73;;
8425;SDS011;4250;50.006;8.286;2022-08-19T07:45:36;14.47;;;10.93;;
8425;SDS011;4250;50.006;8.286;2022-08-19T07:48:02;17.43;;;11.17;;
8425;SDS011;4250;50.006;8.286;2022-08-19T07:50:28;12.48;;;9.95;;
8425;SDS011;4250;50.006;8.286;2022-08-19T07:52:54;12.33;;;9.60;;
8425;SDS011;4250;50.006;8.286;2022-08-19T07:55:20;12.30;;;9.80;;
8425;SDS011;4250;50.006;8.286;2022-08-19T07:57:48;13.60;;;10.18;;
8425;SDS011;4250;50.006;8.286;2022-08-19T08:00:14;13.30;;;9.48;;
8425;SDS011;4250;50.006;8.286;2022-08-19T08:02:40;12.85;;;9.63;;
8425;SDS011;4250;50.006;8.286;2022-08-19T08:05:07;10.65;;;9.55;;
8425;SDS011;4250;50.006;8.286;2022-08-19T08:07:52;12.07;;;10.60;;
8425;SDS011;4250;50.006;8.286;2022-08-19T08:10:46;11.73;;;10.52;;
8425;SDS011;4250;50.006;8.286;2022-08-19T08:13:12;10.85;;;9.27;;
8425;SDS011;4250;50.006;8.286;2022-08-19T08:15:38;16.15;;;11.60;;
8425;SDS011;4250;50.006;8.286;2022-08-19T08:18:03;12.32;;;10.82;;
8425;SDS011;4250;50.006;8.286;2022-08-19T08:20:29;11.57;;;10.00;;
8425;SDS011;4250;50.006;8.286;2022-08-19T08:22:54;16.27;;;10.48;;
8425;SDS011;4250;50.006;8.286;2022-08-19T08:25:39;12.18;;;9.32;;
8425;SDS011;4250;50.006;8.286;2022-08-19T08:28:04;12.57;;;9.50;;
8425;SDS011;4250;50.006;8.286;2022-08-19T08:30:30;13.25;;;9.90;;
8425;SDS011;4250;50.006;8.286;2022-08-19T08:32:58;11.43;;;9.63;;
8425;SDS011;4250;50.006;8.286;2022-08-19T08:35:24;15.43;;;11.15;;
8425;SDS011;4250;50.006;8.286;2022-08-19T08:37:50;12.57;;;11.27;;
8425;SDS011;4250;50.006;8.286;2022-08-19T08:40:19;15.18;;;10.90;;
8425;SDS011;4250;50.006;8.286;2022-08-19T08:42:51;17.15;;;14.77;;
8425;SDS011;4250;50.006;8.286;2022-08-19T08:45:25;18.23;;;15.30;;
8425;SDS011;4250;50.006;8.286;2022-08-19T08:47:52;16.80;;;15.15;;
8425;SDS011;4250;50.006;8.286;2022-08-19T08:50:24;13.18;;;11.25;;
8425;SDS011;4250;50.006;8.286;2022-08-19T08:52:53;13.50;;;12.20;;
8425;SDS011;4250;50.006;8.286;2022-08-19T08:55:23;16.00;;;14.48;;
8425;SDS011;4250;50.006;8.286;2022-08-19T08:57:55;15.70;;;13.88;;
8425;SDS011;4250;50.006;8.286;2022-08-19T09:00:39;15.60;;;13.73;;
8425;SDS011;4250;50.006;8.286;2022-08-19T09:03:06;14.13;;;12.70;;
8425;SDS011;4250;50.006;8.286;2022-08-19T09:11:06;14.95;;;12.73;;
8425;SDS011;4250;50.006;8.286;2022-08-19T09:16:31;14.55;;;13.10;;
8425;SDS011;4250;50.006;8.286;2022-08-19T09:18:58;17.05;;;13.80;;
8425;SDS011;4250;50.006;8.286;2022-08-19T09:21:26;14.32;;;12.55;;
8425;SDS011;4250;50.006;8.286;2022-08-19T09:23:52;14.55;;;11.30;;
8425;SDS011;4250;50.006;8.286;2022-08-19T09:26:19;13.60;;;11.82;;
8425;SDS011;4250;50.006;8.286;2022-08-19T09:28:48;12.82;;;11.57;;
8425;SDS011;4250;50.006;8.286;2022-08-19T09:31:18;12.70;;;11.60;;
8425;SDS011;4250;50.006;8.286;2022-08-19T09:33:46;13.07;;;11.80;;
8425;SDS011;4250;50.006;8.286;2022-08-19T09:36:13;12.98;;;11.68;;
8425;SDS011;4250;50.006;8.286;2022-08-19T09:38:39;12.93;;;11.70;;
8425;SDS011;4250;50.006;8.286;2022-08-19T09:41:07;13.90;;;12.40;;
8425;SDS011;4250;50.006;8.286;2022-08-19T09:43:37;13.55;;;11.88;;
8425;SDS011;4250;50.006;8.286;2022-08-19T09:46:03;15.60;;;14.20;;
8425;SDS011;4250;50.006;8.286;2022-08-19T09:48:31;17.08;;;15.25;;
8425;SDS011;4250;50.006;8.286;2022-08-19T09:51:05;15.55;;;13.98;;
8425;SDS011;4250;50.006;8.286;2022-08-19T09:53:33;17.20;;;15.48;;
8425;SDS011;4250;50.006;8.286;2022-08-19T09:55:59;16.33;;;14.82;;
8425;SDS011;4250;50.006;8.286;2022-08-19T09:58:24;16.75;;;15.05;;
8425;SDS011;4250;50.006;8.286;2022-08-19T10:00:53;15.88;;;14.35;;
8425;SDS011;4250;50.006;8.286;2022-08-19T10:03:19;15.32;;;13.73;;
8425;SDS011;4250;50.006;8.286;2022-08-19T10:05:44;14.35;;;13.02;;
8425;SDS011;4250;50.006;8.286;2022-08-19T10:08:13;13.73;;;12.43;;
8425;SDS011;4250;50.006;8.286;2022-08-19T10:10:39;15.02;;;13.35;;
8425;SDS011;4250;50.006;8.286;2022-08-19T10:13:08;15.10;;;12.95;;
8425;SDS011;4250;50.006;8.286;2022-08-19T10:15:34;13.35;;;12.05;;
8425;SDS011;4250;50.006;8.286;2022-08-19T10:17:59;11.90;;;10.88;;
8425;SDS011;4250;50.006;8.286;2022-08-19T10:20:25;11.85;;;10.63;;
8425;SDS011;4250;50.006;8.286;2022-08-19T10:22:50;12.75;;;11.45;;
8425;SDS011;4250;50.006;8.286;2022-08-19T10:25:16;11.43;;;10.43;;
8425;SDS011;4250;50.006;8.286;2022-08-19T10:27:41;11.32;;;10.18;;
8425;SDS011;4250;50.006;8.286;2022-08-19T10:30:07;8.98;;;8.18;;
8425;SDS011;4250;50.006;8.286;2022-08-19T10:32:33;9.82;;;8.65;;
8425;SDS011;4250;50.006;8.286;2022-08-19T10:34:59;10.15;;;9.15;;
8425;SDS011;4250;50.006;8.286;2022-08-19T10:37:24;8.63;;;7.70;;
8425;SDS011;4250;50.006;8.286;2022-08-19T10:39:49;9.10;;;8.20;;
8425;SDS011;4250;50.006;8.286;2022-08-19T10:42:15;8.77;;;7.95;;
8425;SDS011;4250;50.006;8.286;2022-08-19T10:44:41;9.48;;;7.50;;
8425;SDS011;4250;50.006;8.286;2022-08-19T10:47:07;8.48;;;7.70;;
8425;SDS011;4250;50.006;8.286;2022-08-19T10:49:33;8.07;;;7.38;;
8425;SDS011;4250;50.006;8.286;2022-08-19T10:52:18;9.60;;;7.72;;
8425;SDS011;4250;50.006;8.286;2022-08-19T10:55:05;8.07;;;7.28;;
8425;SDS011;4250;50.006;8.286;2022-08-19T10:57:49;8.93;;;6.93;;
8425;SDS011;4250;50.006;8.286;2022-08-19T11:00:15;7.90;;;7.20;;
8425;SDS011;4250;50.006;8.286;2022-08-19T11:02:41;7.85;;;7.05;;
8425;SDS011;4250;50.006;8.286;2022-08-19T11:05:07;7.35;;;6.65;;
8425;SDS011;4250;50.006;8.286;2022-08-19T11:07:34;8.20;;;7.38;;
8425;SDS011;4250;50.006;8.286;2022-08-19T11:10:01;7.78;;;7.07;;
8425;SDS011;4250;50.006;8.286;2022-08-19T11:12:28;7.97;;;7.18;;
8425;SDS011;4250;50.006;8.286;2022-08-19T11:14:53;8.70;;;7.18;;
8425;SDS011;4250;50.006;8.286;2022-08-19T11:17:19;9.23;;;6.78;;
8425;SDS011;4250;50.006;8.286;2022-08-19T11:19:45;6.82;;;6.15;;
8425;SDS011;4250;50.006;8.286;2022-08-19T11:22:12;7.22;;;6.13;;
8425;SDS011;4250;50.006;8.286;2022-08-19T11:24:37;6.60;;;6.10;;
8425;SDS011;4250;50.006;8.286;2022-08-19T11:27:04;5.72;;;5.22;;
8425;SDS011;4250;50.006;8.286;2022-08-19T11:29:34;6.07;;;5.57;;
8425;SDS011;4250;50.006;8.286;2022-08-19T11:32:03;6.00;;;5.50;;
8425;SDS011;4250;50.006;8.286;2022-08-19T11:34:30;5.88;;;5.38;;
8425;SDS011;4250;50.006;8.286;2022-08-19T11:36:56;7.22;;;5.82;;
8425;SDS011;4250;50.006;8.286;2022-08-19T11:39:23;6.43;;;5.82;;
8425;SDS011;4250;50.006;8.286;2022-08-19T11:41:50;5.95;;;5.45;;
8425;SDS011;4250;50.006;8.286;2022-08-19T11:44:15;5.70;;;5.30;;
8425;SDS011;4250;50.006;8.286;2022-08-19T11:46:41;6.18;;;5.68;;
8425;SDS011;4250;50.006;8.286;2022-08-19T11:49:10;6.25;;;5.65;;
8425;SDS011;4250;50.006;8.286;2022-08-19T11:51:36;7.75;;;6.00;;
8425;SDS011;4250;50.006;8.286;2022-08-19T11:54:02;5.50;;;5.10;;
8425;SDS011;4250;50.006;8.286;2022-08-19T11:56:29;5.78;;;5.30;;
8425;SDS011;4250;50.006;8.286;2022-08-19T11:58:55;6.13;;;5.57;;
8425;SDS011;4250;50.006;8.286;2022-08-19T12:01:22;6.45;;;5.85;;
8425;SDS011;4250;50.006;8.286;2022-08-19T12:03:49;6.70;;;5.20;;
8425;SDS011;4250;50.006;8.286;2022-08-19T12:06:19;5.85;;;5.30;;
8425;SDS011;4250;50.006;8.286;2022-08-19T12:08:50;6.88;;;5.97;;
8425;SDS011;4250;50.006;8.286;2022-08-19T12:11:16;6.13;;;5.47;;
8425;SDS011;4250;50.006;8.286;2022-08-19T12:13:42;6.43;;;5.82;;
8425;SDS011;4250;50.006;8.286;2022-08-19T12:16:10;5.95;;;5.55;;
8425;SDS011;4250;50.006;8.286;2022-08-19T12:18:37;8.48;;;7.75;;
8425;SDS011;4250;50.006;8.286;2022-08-19T12:21:03;7.07;;;5.57;;
8425;SDS011;4250;50.006;8.286;2022-08-19T12:23:29;5.18;;;4.70;;
8425;SDS011;4250;50.006;8.286;2022-08-19T12:25:54;5.70;;;5.07;;
8425;SDS011;4250;50.006;8.286;2022-08-19T12:28:22;6.20;;;5.70;;
8425;SDS011;4250;50.006;8.286;2022-08-19T12:30:48;5.88;;;5.22;;
8425;SDS011;4250;50.006;8.286;2022-08-19T12:33:16;9.40;;;5.47;;
8425;SDS011;4250;50.006;8.286;2022-08-19T12:35:48;6.22;;;5.63;;
8425;SDS011;4250;50.006;8.286;2022-08-19T12:38:14;5.65;;;5.15;;
8425;SDS011;4250;50.006;8.286;2022-08-19T12:40:39;5.30;;;4.90;;
8425;SDS011;4250;50.006;8.286;2022-08-19T12:43:06;6.40;;;5.90;;
8425;SDS011;4250;50.006;8.286;2022-08-19T12:45:32;5.10;;;4.70;;
8425;SDS011;4250;50.006;8.286;2022-08-19T12:47:58;5.93;;;5.43;;
8425;SDS011;4250;50.006;8.286;2022-08-19T12:50:24;5.47;;;5.00;;
8425;SDS011;4250;50.006;8.286;2022-08-19T12:52:49;5.93;;;5.40;;
8425;SDS011;4250;50.006;8.286;2022-08-19T12:55:15;5.85;;;5.15;;
8425;SDS011;4250;50.006;8.286;2022-08-19T12:57:40;6.10;;;5.03;;
8425;SDS011;4250;50.006;8.286;2022-08-19T13:00:07;7.75;;;5.20;;
8425;SDS011;4250;50.006;8.286;2022-08-19T13:02:37;5.75;;;5.20;;
8425;SDS011;4250;50.006;8.286;2022-08-19T13:05:03;6.35;;;5.80;;
8425;SDS011;4250;50.006;8.286;2022-08-19T13:07:33;6.50;;;5.95;;
8425;SDS011;4250;50.006;8.286;2022-08-19T13:09:59;6.97;;;6.38;;
8425;SDS011;4250;50.006;8.286;2022-08-19T13:12:25;6.38;;;5.88;;
8425;SDS011;4250;50.006;8.286;2022-08-19T13:14:51;6.93;;;6.07;;
8425;SDS011;4250;50.006;8.286;2022-08-19T13:17:17;6.07;;;5.57;;
8425;SDS011;4250;50.006;8.286;2022-08-19T13:19:43;6.40;;;5.80;;
8425;SDS011;4250;50.006;8.286;2022-08-19T13:22:08;5.88;;;5.38;;
8425;SDS011;4250;50.006;8.286;2022-08-19T13:24:33;7.97;;;5.18;;
8425;SDS011;4250;50.006;8.286;2022-08-19T13:27:01;5.93;;;5.43;;
8425;SDS011;4250;50.006;8.286;2022-08-19T13:29:27;5.32;;;4.82;;
8425;SDS011;4250;50.006;8.286;2022-08-19T13:32:10;5.35;;;4.95;;
8425;SDS011;4250;50.006;8.286;2022-08-19T13:34:54;5.32;;;4.85;;
8425;SDS011;4250;50.006;8.286;2022-08-19T13:37:21;6.53;;;4.95;;
8425;SDS011;4250;50.006;8.286;2022-08-19T13:40:06;6.93;;;6.13;;
8425;SDS011;4250;50.006;8.286;2022-08-19T13:42:36;6.80;;;6.22;;
8425;SDS011;4250;50.006;8.286;2022-08-19T13:45:02;6.03;;;5.10;;
8425;SDS011;4250;50.006;8.286;2022-08-19T13:47:27;5.38;;;4.82;;
8425;SDS011;4250;50.006;8.286;2022-08-19T13:49:53;5.70;;;4.95;;
8425;SDS011;4250;50.006;8.286;2022-08-19T13:52:18;5.25;;;4.90;;
8425;SDS011;4250;50.006;8.286;2022-08-19T13:54:43;5.13;;;4.72;;
8425;SDS011;4250;50.006;8.286;2022-08-19T13:57:09;6.60;;;5.03;;
8425;SDS011;4250;50.006;8.286;2022-08-19T13:59:34;7.13;;;4.43;;
8425;SDS011;4250;50.006;8.286;2022-08-19T14:02:00;6.22;;;4.30;;
8425;SDS011;4250;50.006;8.286;2022-08-19T14:04:25;5.03;;;4.50;;
8425;SDS011;4250;50.006;8.286;2022-08-19T14:06:51;5.07;;;4.75;;
8425;SDS011;4250;50.006;8.286;2022-08-19T14:09:16;5.60;;;5.18;;
8425;SDS011;4250;50.006;8.286;2022-08-19T14:11:42;5.85;;;5.30;;
8425;SDS011;4250;50.006;8.286;2022-08-19T14:14:07;5.40;;;5.00;;
8425;SDS011;4250;50.006;8.286;2022-08-19T14:16:32;5.95;;;5.45;;
8425;SDS011;4250;50.006;8.286;2022-08-19T14:18:58;6.20;;;4.75;;
8425;SDS011;4250;50.006;8.286;2022-08-19T14:21:24;4.97;;;4.50;;
8425;SDS011;4250;50.006;8.286;2022-08-19T14:23:50;4.80;;;4.40;;
8425;SDS011;4250;50.006;8.286;2022-08-19T14:26:17;6.78;;;4.43;;
8425;SDS011;4250;50.006;8.286;2022-08-19T14:28:43;4.57;;;4.22;;
8425;SDS011;4250;50.006;8.286;2022-08-19T14:31:10;4.25;;;3.95;;
8425;SDS011;4250;50.006;8.286;2022-08-19T14:33:41;4.75;;;4.20;;
8425;SDS011;4250;50.006;8.286;2022-08-19T14:36:07;4.18;;;3.75;;
8425;SDS011;4250;50.006;8.286;2022-08-19T14:38:33;4.10;;;3.80;;
8425;SDS011;4250;50.006;8.286;2022-08-19T14:41:19;4.47;;;4.13;;
8425;SDS011;4250;50.006;8.286;2022-08-19T14:43:48;5.28;;;4.75;;
8425;SDS011;4250;50.006;8.286;2022-08-19T14:46:16;5.93;;;4.97;;
8425;SDS011;4250;50.006;8.286;2022-08-19T14:48:42;4.75;;;4.45;;
8425;SDS011;4250;50.006;8.286;2022-08-19T14:51:08;4.97;;;4.60;;
8425;SDS011;4250;50.006;8.286;2022-08-19T14:53:34;6.35;;;4.97;;
8425;SDS011;4250;50.006;8.286;2022-08-19T14:55:59;5.38;;;4.90;;
8425;SDS011;4250;50.006;8.286;2022-08-19T14:58:25;4.80;;;4.40;;
8425;SDS011;4250;50.006;8.286;2022-08-19T15:00:51;5.43;;;4.80;;
8425;SDS011;4250;50.006;8.286;2022-08-19T15:03:16;5.18;;;4.60;;
8425;SDS011;4250;50.006;8.286;2022-08-19T15:05:42;4.93;;;4.63;;
8425;SDS011;4250;50.006;8.286;2022-08-19T15:08:07;5.53;;;4.80;;
8425;SDS011;4250;50.006;8.286;2022-08-19T15:10:33;5.50;;;5.10;;
8425;SDS011;4250;50.006;8.286;2022-08-19T15:12:58;6.20;;;5.60;;